Bremerton, Washington
Current Conditions -  °F | °C
As of 3:35 PM on Tuesday 25 Nov 2014 (Local Time) from KPWT Reporting Station
Overcast Overcast  
Wind Chill: 48°   Ceiling: 400
Heat Index: 48°   Visibility: 7mi
Dew Point: 48°   Wind: 3mph
Humidity: 100%   Direction: 40°NE
Pressure: 30.21"   Gusts: NA
Location:  47.57°N, 122.62°W
Report Text: KPWT 252335Z AUTO 04003KT 7SM OVC004 09/09 A3021 RMK AO1 P0001
Loading
Personal Weather Stations






























Interactive Weather Map New forecast layout! Learn more

10-Day Weather Forecast

Advertisements
Track Severe Weather on mobile